sensor_id;sensor_type;location;lat;lon;timestamp;temperature;humidity
13256;DHT22;37913;48.370;10.930;2023-07-20T00:00:14;20.60;93.80
13256;DHT22;37913;48.370;10.930;2023-07-20T00:02:43;20.60;94.30
13256;DHT22;37913;48.370;10.930;2023-07-20T00:05:10;20.60;94.10
13256;DHT22;37913;48.370;10.930;2023-07-20T00:07:37;20.60;94.30
13256;DHT22;37913;48.370;10.930;2023-07-20T00:10:04;20.60;94.30
13256;DHT22;37913;48.370;10.930;2023-07-20T00:12:31;20.60;94.20
13256;DHT22;37913;48.370;10.930;2023-07-20T00:14:58;20.50;94.20
13256;DHT22;37913;48.370;10.930;2023-07-20T00:17:25;20.50;94.30
13256;DHT22;37913;48.370;10.930;2023-07-20T00:19:53;20.50;94.60
13256;DHT22;37913;48.370;10.930;2023-07-20T00:22:20;20.40;94.60
13256;DHT22;37913;48.370;10.930;2023-07-20T00:24:46;20.40;94.70
13256;DHT22;37913;48.370;10.930;2023-07-20T00:27:13;20.40;94.70
13256;DHT22;37913;48.370;10.930;2023-07-20T00:29:40;20.30;94.70
13256;DHT22;37913;48.370;10.930;2023-07-20T00:32:07;20.30;94.90
13256;DHT22;37913;48.370;10.930;2023-07-20T00:34:34;20.30;94.80
13256;DHT22;37913;48.370;10.930;2023-07-20T00:37:02;20.20;94.90
13256;DHT22;37913;48.370;10.930;2023-07-20T00:39:29;20.20;94.90
13256;DHT22;37913;48.370;10.930;2023-07-20T00:41:56;20.20;95.00
13256;DHT22;37913;48.370;10.930;2023-07-20T00:44:23;20.10;95.10
13256;DHT22;37913;48.370;10.930;2023-07-20T00:46:50;20.10;95.20
13256;DHT22;37913;48.370;10.930;2023-07-20T00:49:17;20.10;94.90
13256;DHT22;37913;48.370;10.930;2023-07-20T00:51:47;20.10;94.80
13256;DHT22;37913;48.370;10.930;2023-07-20T00:54:16;20.10;94.80
13256;DHT22;37913;48.370;10.930;2023-07-20T00:56:44;20.10;94.70
13256;DHT22;37913;48.370;10.930;2023-07-20T00:59:11;20.00;95.10
13256;DHT22;37913;48.370;10.930;2023-07-20T01:01:38;20.00;94.80
13256;DHT22;37913;48.370;10.930;2023-07-20T01:04:05;19.90;94.70
13256;DHT22;37913;48.370;10.930;2023-07-20T01:06:38;19.90;94.70
13256;DHT22;37913;48.370;10.930;2023-07-20T01:09:13;19.90;94.00
13256;DHT22;37913;48.370;10.930;2023-07-20T01:11:50;19.90;94.20
13256;DHT22;37913;48.370;10.930;2023-07-20T01:14:18;19.90;93.70
13256;DHT22;37913;48.370;10.930;2023-07-20T01:16:46;19.90;93.50
13256;DHT22;37913;48.370;10.930;2023-07-20T01:19:15;19.90;93.40
13256;DHT22;37913;48.370;10.930;2023-07-20T01:21:47;19.80;93.50
13256;DHT22;37913;48.370;10.930;2023-07-20T01:24:39;19.80;93.50
13256;DHT22;37913;48.370;10.930;2023-07-20T01:27:27;19.80;93.50
13256;DHT22;37913;48.370;10.930;2023-07-20T01:30:14;18.30;93.10
13256;DHT22;37913;48.370;10.930;2023-07-20T01:32:44;19.70;93.80
13256;DHT22;37913;48.370;10.930;2023-07-20T01:35:14;19.70;93.80
13256;DHT22;37913;48.370;10.930;2023-07-20T01:37:44;19.70;93.90
13256;DHT22;37913;48.370;10.930;2023-07-20T01:40:13;19.70;94.00
13256;DHT22;37913;48.370;10.930;2023-07-20T01:42:44;19.70;94.00
13256;DHT22;37913;48.370;10.930;2023-07-20T01:45:11;19.70;94.20
13256;DHT22;37913;48.370;10.930;2023-07-20T01:47:38;19.70;94.30
13256;DHT22;37913;48.370;10.930;2023-07-20T01:50:07;19.70;94.30
13256;DHT22;37913;48.370;10.930;2023-07-20T01:52:35;19.70;94.40
13256;DHT22;37913;48.370;10.930;2023-07-20T01:55:02;19.70;94.30
13256;DHT22;37913;48.370;10.930;2023-07-20T01:57:29;19.60;94.50
13256;DHT22;37913;48.370;10.930;2023-07-20T01:59:56;18.40;94.00
13256;DHT22;37913;48.370;10.930;2023-07-20T02:02:26;19.60;94.60
13256;DHT22;37913;48.370;10.930;2023-07-20T02:04:53;19.50;94.50
13256;DHT22;37913;48.370;10.930;2023-07-20T02:07:22;19.50;94.80
13256;DHT22;37913;48.370;10.930;2023-07-20T02:09:48;19.40;94.90
13256;DHT22;37913;48.370;10.930;2023-07-20T02:12:15;19.40;95.10
13256;DHT22;37913;48.370;10.930;2023-07-20T02:14:42;19.30;95.30
13256;DHT22;37913;48.370;10.930;2023-07-20T02:17:09;19.30;95.40
13256;DHT22;37913;48.370;10.930;2023-07-20T02:19:37;19.20;95.60
13256;DHT22;37913;48.370;10.930;2023-07-20T02:22:04;19.20;95.40
13256;DHT22;37913;48.370;10.930;2023-07-20T02:24:34;19.20;95.60
13256;DHT22;37913;48.370;10.930;2023-07-20T02:27:01;19.00;95.80
13256;DHT22;37913;48.370;10.930;2023-07-20T02:29:28;18.90;96.00
13256;DHT22;37913;48.370;10.930;2023-07-20T02:31:54;18.80;96.20
13256;DHT22;37913;48.370;10.930;2023-07-20T02:34:21;18.70;96.60
13256;DHT22;37913;48.370;10.930;2023-07-20T02:36:49;18.70;96.90
13256;DHT22;37913;48.370;10.930;2023-07-20T02:39:16;18.70;96.90
13256;DHT22;37913;48.370;10.930;2023-07-20T02:41:44;18.70;96.60
13256;DHT22;37913;48.370;10.930;2023-07-20T02:44:12;18.80;96.70
13256;DHT22;37913;48.370;10.930;2023-07-20T02:46:38;18.80;96.60
13256;DHT22;37913;48.370;10.930;2023-07-20T02:49:05;18.80;96.60
13256;DHT22;37913;48.370;10.930;2023-07-20T02:51:32;18.80;96.30
13256;DHT22;37913;48.370;10.930;2023-07-20T02:53:59;18.80;96.30
13256;DHT22;37913;48.370;10.930;2023-07-20T02:56:27;18.80;96.40
13256;DHT22;37913;48.370;10.930;2023-07-20T02:58:55;18.80;96.50
13256;DHT22;37913;48.370;10.930;2023-07-20T03:01:22;18.70;96.70
13256;DHT22;37913;48.370;10.930;2023-07-20T03:03:49;18.60;96.90
13256;DHT22;37913;48.370;10.930;2023-07-20T03:06:16;18.60;96.90
13256;DHT22;37913;48.370;10.930;2023-07-20T03:08:43;18.60;97.00
13256;DHT22;37913;48.370;10.930;2023-07-20T03:11:13;18.60;97.20
13256;DHT22;37913;48.370;10.930;2023-07-20T03:13:40;18.60;97.20
13256;DHT22;37913;48.370;10.930;2023-07-20T03:16:10;18.60;97.40
13256;DHT22;37913;48.370;10.930;2023-07-20T03:18:37;18.60;97.10
13256;DHT22;37913;48.370;10.930;2023-07-20T03:21:05;18.50;97.30
13256;DHT22;37913;48.370;10.930;2023-07-20T03:23:32;18.50;97.10
13256;DHT22;37913;48.370;10.930;2023-07-20T03:25:59;18.50;97.40
13256;DHT22;37913;48.370;10.930;2023-07-20T03:28:26;18.50;97.40
13256;DHT22;37913;48.370;10.930;2023-07-20T03:30:53;18.40;97.30
13256;DHT22;37913;48.370;10.930;2023-07-20T03:33:26;18.50;97.50
13256;DHT22;37913;48.370;10.930;2023-07-20T03:35:53;18.40;97.70
13256;DHT22;37913;48.370;10.930;2023-07-20T03:38:20;18.40;97.80
13256;DHT22;37913;48.370;10.930;2023-07-20T03:40:50;18.30;98.30
13256;DHT22;37913;48.370;10.930;2023-07-20T03:43:17;18.30;98.60
13256;DHT22;37913;48.370;10.930;2023-07-20T03:45:45;18.30;98.90
13256;DHT22;37913;48.370;10.930;2023-07-20T03:48:13;18.30;99.10
13256;DHT22;37913;48.370;10.930;2023-07-20T03:50:42;18.30;99.40
13256;DHT22;37913;48.370;10.930;2023-07-20T03:53:09;18.30;99.50
13256;DHT22;37913;48.370;10.930;2023-07-20T03:55:36;18.30;99.60
13256;DHT22;37913;48.370;10.930;2023-07-20T03:58:02;18.30;99.80
13256;DHT22;37913;48.370;10.930;2023-07-20T04:00:29;18.20;99.90
13256;DHT22;37913;48.370;10.930;2023-07-20T04:02:57;18.20;99.90
13256;DHT22;37913;48.370;10.930;2023-07-20T04:05:24;18.10;99.90
13256;DHT22;37913;48.370;10.930;2023-07-20T04:07:53;18.10;99.80
13256;DHT22;37913;48.370;10.930;2023-07-20T04:10:19;18.10;99.80
13256;DHT22;37913;48.370;10.930;2023-07-20T04:12:46;18.10;99.30
13256;DHT22;37913;48.370;10.930;2023-07-20T04:15:13;18.20;98.90
13256;DHT22;37913;48.370;10.930;2023-07-20T04:17:41;18.20;98.80
13256;DHT22;37913;48.370;10.930;2023-07-20T04:20:08;18.20;98.70
13256;DHT22;37913;48.370;10.930;2023-07-20T04:22:35;18.20;98.60
13256;DHT22;37913;48.370;10.930;2023-07-20T04:25:04;18.20;98.50
13256;DHT22;37913;48.370;10.930;2023-07-20T04:27:31;18.20;98.90
13256;DHT22;37913;48.370;10.930;2023-07-20T04:29:58;18.30;98.10
13256;DHT22;37913;48.370;10.930;2023-07-20T04:32:26;18.20;98.20
13256;DHT22;37913;48.370;10.930;2023-07-20T04:34:53;18.30;97.80
13256;DHT22;37913;48.370;10.930;2023-07-20T04:37:20;18.30;97.60
13256;DHT22;37913;48.370;10.930;2023-07-20T04:39:46;18.20;97.80
13256;DHT22;37913;48.370;10.930;2023-07-20T04:42:15;18.20;97.60
13256;DHT22;37913;48.370;10.930;2023-07-20T04:44:42;18.10;97.80
13256;DHT22;37913;48.370;10.930;2023-07-20T04:47:09;18.10;98.10
13256;DHT22;37913;48.370;10.930;2023-07-20T04:49:36;18.10;98.10
13256;DHT22;37913;48.370;10.930;2023-07-20T04:52:03;18.20;98.00
13256;DHT22;37913;48.370;10.930;2023-07-20T04:54:30;18.40;97.70
13256;DHT22;37913;48.370;10.930;2023-07-20T04:56:57;18.70;97.30
13256;DHT22;37913;48.370;10.930;2023-07-20T04:59:25;18.80;97.40
13256;DHT22;37913;48.370;10.930;2023-07-20T05:01:52;18.80;96.90
13256;DHT22;37913;48.370;10.930;2023-07-20T05:04:19;18.90;96.90
13256;DHT22;37913;48.370;10.930;2023-07-20T05:06:46;18.80;97.00
13256;DHT22;37913;48.370;10.930;2023-07-20T05:09:13;18.70;97.10
13256;DHT22;37913;48.370;10.930;2023-07-20T05:11:40;18.70;97.10
13256;DHT22;37913;48.370;10.930;2023-07-20T05:14:07;18.60;97.20
13256;DHT22;37913;48.370;10.930;2023-07-20T05:16:35;18.70;97.10
13256;DHT22;37913;48.370;10.930;2023-07-20T05:19:02;18.80;97.10
13256;DHT22;37913;48.370;10.930;2023-07-20T05:21:29;18.90;96.90
13256;DHT22;37913;48.370;10.930;2023-07-20T05:23:56;19.10;96.60
13256;DHT22;37913;48.370;10.930;2023-07-20T05:26:23;19.20;96.50
13256;DHT22;37913;48.370;10.930;2023-07-20T05:28:50;19.30;96.40
13256;DHT22;37913;48.370;10.930;2023-07-20T05:31:17;19.40;96.10
13256;DHT22;37913;48.370;10.930;2023-07-20T05:33:46;19.40;95.90
13256;DHT22;37913;48.370;10.930;2023-07-20T05:36:13;19.50;96.00
13256;DHT22;37913;48.370;10.930;2023-07-20T05:38:40;19.40;95.60
13256;DHT22;37913;48.370;10.930;2023-07-20T05:41:07;19.50;95.60
13256;DHT22;37913;48.370;10.930;2023-07-20T05:43:35;19.70;95.40
13256;DHT22;37913;48.370;10.930;2023-07-20T05:46:02;19.60;95.20
13256;DHT22;37913;48.370;10.930;2023-07-20T05:48:30;19.80;95.50
13256;DHT22;37913;48.370;10.930;2023-07-20T05:50:59;19.70;94.90
13256;DHT22;37913;48.370;10.930;2023-07-20T05:53:26;19.70;94.90
13256;DHT22;37913;48.370;10.930;2023-07-20T05:55:53;19.90;94.90
13256;DHT22;37913;48.370;10.930;2023-07-20T05:58:21;20.00;94.80
13256;DHT22;37913;48.370;10.930;2023-07-20T06:00:48;19.90;94.80
13256;DHT22;37913;48.370;10.930;2023-07-20T06:03:18;20.00;94.70
13256;DHT22;37913;48.370;10.930;2023-07-20T06:05:47;20.00;94.50
13256;DHT22;37913;48.370;10.930;2023-07-20T06:08:15;20.20;94.50
13256;DHT22;37913;48.370;10.930;2023-07-20T06:10:42;20.60;94.20
13256;DHT22;37913;48.370;10.930;2023-07-20T06:13:15;20.80;93.70
13256;DHT22;37913;48.370;10.930;2023-07-20T06:15:42;21.00;93.70
13256;DHT22;37913;48.370;10.930;2023-07-20T06:18:09;21.50;92.90
13256;DHT22;37913;48.370;10.930;2023-07-20T06:20:37;21.90;92.50
13256;DHT22;37913;48.370;10.930;2023-07-20T06:23:04;21.90;92.30
13256;DHT22;37913;48.370;10.930;2023-07-20T06:25:32;22.10;92.40
13256;DHT22;37913;48.370;10.930;2023-07-20T06:27:59;22.40;91.90
13256;DHT22;37913;48.370;10.930;2023-07-20T06:30:26;22.40;92.00
13256;DHT22;37913;48.370;10.930;2023-07-20T06:32:53;22.50;91.40
13256;DHT22;37913;48.370;10.930;2023-07-20T06:35:20;22.90;91.10
13256;DHT22;37913;48.370;10.930;2023-07-20T06:37:48;22.80;90.60
13256;DHT22;37913;48.370;10.930;2023-07-20T06:40:15;23.10;90.50
13256;DHT22;37913;48.370;10.930;2023-07-20T06:42:43;23.40;90.00
13256;DHT22;37913;48.370;10.930;2023-07-20T06:45:12;23.70;89.50
13256;DHT22;37913;48.370;10.930;2023-07-20T06:47:39;23.20;90.20
13256;DHT22;37913;48.370;10.930;2023-07-20T06:50:08;23.30;90.00
13256;DHT22;37913;48.370;10.930;2023-07-20T06:52:37;23.30;89.00
13256;DHT22;37913;48.370;10.930;2023-07-20T06:55:06;23.10;90.30
13256;DHT22;37913;48.370;10.930;2023-07-20T06:57:35;23.20;89.70
13256;DHT22;37913;48.370;10.930;2023-07-20T07:00:05;23.10;89.70
13256;DHT22;37913;48.370;10.930;2023-07-20T07:02:32;23.10;89.40
13256;DHT22;37913;48.370;10.930;2023-07-20T07:05:00;22.60;89.80
13256;DHT22;37913;48.370;10.930;2023-07-20T07:07:27;22.70;89.90
13256;DHT22;37913;48.370;10.930;2023-07-20T07:09:55;23.10;89.50
13256;DHT22;37913;48.370;10.930;2023-07-20T07:12:22;23.60;88.90
13256;DHT22;37913;48.370;10.930;2023-07-20T07:14:49;23.40;89.10
13256;DHT22;37913;48.370;10.930;2023-07-20T07:17:19;22.50;89.40
13256;DHT22;37913;48.370;10.930;2023-07-20T07:19:46;23.30;90.40
13256;DHT22;37913;48.370;10.930;2023-07-20T07:22:15;23.80;89.30
13256;DHT22;37913;48.370;10.930;2023-07-20T07:24:42;24.50;87.30
13256;DHT22;37913;48.370;10.930;2023-07-20T07:27:10;24.90;84.80
13256;DHT22;37913;48.370;10.930;2023-07-20T07:29:37;23.10;87.60
13256;DHT22;37913;48.370;10.930;2023-07-20T07:32:04;22.30;88.30
13256;DHT22;37913;48.370;10.930;2023-07-20T07:34:35;22.00;90.30
13256;DHT22;37913;48.370;10.930;2023-07-20T07:37:02;22.30;89.40
13256;DHT22;37913;48.370;10.930;2023-07-20T07:39:30;23.10;89.30
13256;DHT22;37913;48.370;10.930;2023-07-20T07:41:58;23.90;87.20
13256;DHT22;37913;48.370;10.930;2023-07-20T07:44:26;24.70;85.40
13256;DHT22;37913;48.370;10.930;2023-07-20T07:46:53;25.20;84.20
13256;DHT22;37913;48.370;10.930;2023-07-20T07:49:20;25.60;83.00
13256;DHT22;37913;48.370;10.930;2023-07-20T07:51:48;26.00;80.50
13256;DHT22;37913;48.370;10.930;2023-07-20T07:54:15;26.60;79.10
13256;DHT22;37913;48.370;10.930;2023-07-20T07:56:46;26.20;79.10
13256;DHT22;37913;48.370;10.930;2023-07-20T07:59:13;26.20;79.90
13256;DHT22;37913;48.370;10.930;2023-07-20T08:01:40;26.60;78.60
13256;DHT22;37913;48.370;10.930;2023-07-20T08:04:07;27.30;76.60
13256;DHT22;37913;48.370;10.930;2023-07-20T08:06:34;27.90;74.00
13256;DHT22;37913;48.370;10.930;2023-07-20T08:09:05;28.30;73.00
13256;DHT22;37913;48.370;10.930;2023-07-20T08:11:35;27.80;72.70
13256;DHT22;37913;48.370;10.930;2023-07-20T08:14:02;28.20;71.00
13256;DHT22;37913;48.370;10.930;2023-07-20T08:16:29;28.80;70.10
13256;DHT22;37913;48.370;10.930;2023-07-20T08:18:57;29.30;68.50
13256;DHT22;37913;48.370;10.930;2023-07-20T08:21:25;29.90;66.90
13256;DHT22;37913;48.370;10.930;2023-07-20T08:23:56;30.40;64.90
13256;DHT22;37913;48.370;10.930;2023-07-20T08:26:25;30.40;64.70
13256;DHT22;37913;48.370;10.930;2023-07-20T08:28:53;29.20;66.00
13256;DHT22;37913;48.370;10.930;2023-07-20T08:31:20;29.90;63.00
13256;DHT22;37913;48.370;10.930;2023-07-20T08:33:48;30.40;62.40
13256;DHT22;37913;48.370;10.930;2023-07-20T08:36:16;32.00;59.80
13256;DHT22;37913;48.370;10.930;2023-07-20T08:38:44;31.40;59.80
13256;DHT22;37913;48.370;10.930;2023-07-20T08:41:12;32.20;59.30
13256;DHT22;37913;48.370;10.930;2023-07-20T08:43:42;33.20;57.60
13256;DHT22;37913;48.370;10.930;2023-07-20T08:46:12;34.40;55.60
13256;DHT22;37913;48.370;10.930;2023-07-20T08:48:41;35.30;53.40
13256;DHT22;37913;48.370;10.930;2023-07-20T08:51:11;35.30;52.70
13256;DHT22;37913;48.370;10.930;2023-07-20T08:53:40;35.80;52.40
13256;DHT22;37913;48.370;10.930;2023-07-20T08:56:09;35.30;52.20
13256;DHT22;37913;48.370;10.930;2023-07-20T08:58:37;35.20;52.40
13256;DHT22;37913;48.370;10.930;2023-07-20T09:01:07;35.60;50.40
13256;DHT22;37913;48.370;10.930;2023-07-20T09:03:34;36.10;49.30
13256;DHT22;37913;48.370;10.930;2023-07-20T09:06:11;36.10;48.90
13256;DHT22;37913;48.370;10.930;2023-07-20T09:08:38;36.60;49.10
13256;DHT22;37913;48.370;10.930;2023-07-20T09:11:08;37.50;47.30
13256;DHT22;37913;48.370;10.930;2023-07-20T09:13:35;38.10;46.80
13256;DHT22;37913;48.370;10.930;2023-07-20T09:16:02;37.90;46.40
13256;DHT22;37913;48.370;10.930;2023-07-20T09:18:33;36.50;46.60
13256;DHT22;37913;48.370;10.930;2023-07-20T09:21:02;36.30;48.50
13256;DHT22;37913;48.370;10.930;2023-07-20T09:23:31;36.20;46.90
13256;DHT22;37913;48.370;10.930;2023-07-20T09:25:58;35.20;48.30
13256;DHT22;37913;48.370;10.930;2023-07-20T09:28:26;35.70;46.40
13256;DHT22;37913;48.370;10.930;2023-07-20T09:30:55;34.10;47.20
13256;DHT22;37913;48.370;10.930;2023-07-20T09:33:22;36.00;46.90
13256;DHT22;37913;48.370;10.930;2023-07-20T09:35:50;37.10;46.30
13256;DHT22;37913;48.370;10.930;2023-07-20T09:38:17;37.80;45.20
13256;DHT22;37913;48.370;10.930;2023-07-20T09:40:48;37.20;46.00
13256;DHT22;37913;48.370;10.930;2023-07-20T09:43:20;36.40;46.20
13256;DHT22;37913;48.370;10.930;2023-07-20T09:45:47;36.80;45.50
13256;DHT22;37913;48.370;10.930;2023-07-20T09:48:17;38.40;45.90
13256;DHT22;37913;48.370;10.930;2023-07-20T09:50:50;39.60;43.60
13256;DHT22;37913;48.370;10.930;2023-07-20T09:53:18;39.90;43.10
13256;DHT22;37913;48.370;10.930;2023-07-20T09:55:46;38.90;43.70
13256;DHT22;37913;48.370;10.930;2023-07-20T09:58:16;37.40;44.10
13256;DHT22;37913;48.370;10.930;2023-07-20T10:00:44;37.50;43.90
13256;DHT22;37913;48.370;10.930;2023-07-20T10:03:18;38.40;43.00
13256;DHT22;37913;48.370;10.930;2023-07-20T10:05:48;40.30;42.10
13256;DHT22;37913;48.370;10.930;2023-07-20T10:08:20;40.70;41.00
13256;DHT22;37913;48.370;10.930;2023-07-20T10:10:49;38.60;42.80
13256;DHT22;37913;48.370;10.930;2023-07-20T10:13:18;38.70;43.00
13256;DHT22;37913;48.370;10.930;2023-07-20T10:15:52;36.60;44.10
13256;DHT22;37913;48.370;10.930;2023-07-20T10:18:25;36.30;45.80
13256;DHT22;37913;48.370;10.930;2023-07-20T10:20:54;38.30;43.90
13256;DHT22;37913;48.370;10.930;2023-07-20T10:23:23;38.50;43.40
13256;DHT22;37913;48.370;10.930;2023-07-20T10:25:50;39.40;42.10
13256;DHT22;37913;48.370;10.930;2023-07-20T10:28:17;39.40;41.80
13256;DHT22;37913;48.370;10.930;2023-07-20T10:30:44;37.70;42.10
13256;DHT22;37913;48.370;10.930;2023-07-20T10:33:12;36.10;44.80
13256;DHT22;37913;48.370;10.930;2023-07-20T10:35:53;36.20;44.80
13256;DHT22;37913;48.370;10.930;2023-07-20T10:38:20;34.70;46.50
13256;DHT22;37913;48.370;10.930;2023-07-20T10:41:17;33.50;48.40
13256;DHT22;37913;48.370;10.930;2023-07-20T10:43:45;32.80;49.00
13256;DHT22;37913;48.370;10.930;2023-07-20T10:46:14;32.00;50.30
13256;DHT22;37913;48.370;10.930;2023-07-20T10:49:00;31.40;51.10
13256;DHT22;37913;48.370;10.930;2023-07-20T10:51:29;30.90;51.50
13256;DHT22;37913;48.370;10.930;2023-07-20T10:53:57;28.50;54.90
13256;DHT22;37913;48.370;10.930;2023-07-20T10:56:28;28.00;55.00
13256;DHT22;37913;48.370;10.930;2023-07-20T10:58:57;28.20;55.90
13256;DHT22;37913;48.370;10.930;2023-07-20T11:01:37;27.30;57.30
13256;DHT22;37913;48.370;10.930;2023-07-20T11:04:10;29.20;56.70
13256;DHT22;37913;48.370;10.930;2023-07-20T11:06:37;28.30;55.80
13256;DHT22;37913;48.370;10.930;2023-07-20T11:09:14;30.00;55.00
13256;DHT22;37913;48.370;10.930;2023-07-20T11:11:49;30.10;54.60
13256;DHT22;37913;48.370;10.930;2023-07-20T11:14:24;30.10;54.50
13256;DHT22;37913;48.370;10.930;2023-07-20T11:16:55;28.50;56.10
13256;DHT22;37913;48.370;10.930;2023-07-20T11:19:24;28.40;56.90
13256;DHT22;37913;48.370;10.930;2023-07-20T11:21:53;28.60;56.50
13256;DHT22;37913;48.370;10.930;2023-07-20T11:24:26;27.70;58.50
13256;DHT22;37913;48.370;10.930;2023-07-20T11:26:54;27.60;59.30
13256;DHT22;37913;48.370;10.930;2023-07-20T11:29:43;28.90;57.20
13256;DHT22;37913;48.370;10.930;2023-07-20T11:32:11;29.20;57.10
13256;DHT22;37913;48.370;10.930;2023-07-20T11:34:40;29.60;56.00
13256;DHT22;37913;48.370;10.930;2023-07-20T11:37:08;30.70;55.60
13256;DHT22;37913;48.370;10.930;2023-07-20T11:39:39;33.70;53.80
13256;DHT22;37913;48.370;10.930;2023-07-20T11:42:19;35.10;50.90
13256;DHT22;37913;48.370;10.930;2023-07-20T11:44:51;35.50;49.90
13256;DHT22;37913;48.370;10.930;2023-07-20T11:47:19;35.80;48.90
13256;DHT22;37913;48.370;10.930;2023-07-20T11:49:46;35.80;49.30
13256;DHT22;37913;48.370;10.930;2023-07-20T11:52:20;35.00;49.00
13256;DHT22;37913;48.370;10.930;2023-07-20T11:54:47;37.20;48.60
13256;DHT22;37913;48.370;10.930;2023-07-20T11:57:20;39.30;45.40
13256;DHT22;37913;48.370;10.930;2023-07-20T11:59:53;41.80;44.10
13256;DHT22;37913;48.370;10.930;2023-07-20T12:02:23;42.50;41.60
13256;DHT22;37913;48.370;10.930;2023-07-20T12:04:51;41.30;41.10
13256;DHT22;37913;48.370;10.930;2023-07-20T12:07:18;36.20;45.20
13256;DHT22;37913;48.370;10.930;2023-07-20T12:10:03;33.00;49.70
13256;DHT22;37913;48.370;10.930;2023-07-20T12:12:33;33.50;50.10
13256;DHT22;37913;48.370;10.930;2023-07-20T12:15:13;36.10;45.60
13256;DHT22;37913;48.370;10.930;2023-07-20T12:17:42;36.70;43.00
13256;DHT22;37913;48.370;10.930;2023-07-20T12:20:11;38.10;43.60
13256;DHT22;37913;48.370;10.930;2023-07-20T12:22:39;40.50;41.80
13256;DHT22;37913;48.370;10.930;2023-07-20T12:25:06;41.70;40.40
13256;DHT22;37913;48.370;10.930;2023-07-20T12:27:36;41.20;41.60
13256;DHT22;37913;48.370;10.930;2023-07-20T12:30:06;42.60;39.50
13256;DHT22;37913;48.370;10.930;2023-07-20T12:32:33;43.40;39.50
13256;DHT22;37913;48.370;10.930;2023-07-20T12:35:01;45.00;38.50
13256;DHT22;37913;48.370;10.930;2023-07-20T12:37:28;44.00;38.20
13256;DHT22;37913;48.370;10.930;2023-07-20T12:39:55;43.00;39.00
13256;DHT22;37913;48.370;10.930;2023-07-20T12:42:22;40.80;39.70
13256;DHT22;37913;48.370;10.930;2023-07-20T12:44:50;38.90;42.00
13256;DHT22;37913;48.370;10.930;2023-07-20T12:47:17;38.40;42.20
13256;DHT22;37913;48.370;10.930;2023-07-20T12:49:45;37.90;41.00
13256;DHT22;37913;48.370;10.930;2023-07-20T12:52:12;36.30;42.70
13256;DHT22;37913;48.370;10.930;2023-07-20T12:54:39;37.50;42.50
13256;DHT22;37913;48.370;10.930;2023-07-20T12:57:06;39.40;40.30
13256;DHT22;37913;48.370;10.930;2023-07-20T12:59:33;36.70;40.10
13256;DHT22;37913;48.370;10.930;2023-07-20T13:02:02;36.10;41.60
13256;DHT22;37913;48.370;10.930;2023-07-20T13:04:30;36.50;41.90
13256;DHT22;37913;48.370;10.930;2023-07-20T13:06:57;36.90;41.50
13256;DHT22;37913;48.370;10.930;2023-07-20T13:09:24;32.80;43.60
13256;DHT22;37913;48.370;10.930;2023-07-20T13:11:51;35.20;43.90
13256;DHT22;37913;48.370;10.930;2023-07-20T13:14:18;32.60;45.40
13256;DHT22;37913;48.370;10.930;2023-07-20T13:16:47;33.80;44.80
13256;DHT22;37913;48.370;10.930;2023-07-20T13:19:15;35.40;43.50
13256;DHT22;37913;48.370;10.930;2023-07-20T13:21:42;33.70;45.70
13256;DHT22;37913;48.370;10.930;2023-07-20T13:24:09;33.80;46.00
13256;DHT22;37913;48.370;10.930;2023-07-20T13:26:36;33.70;46.40
13256;DHT22;37913;48.370;10.930;2023-07-20T13:29:03;36.30;43.70
13256;DHT22;37913;48.370;10.930;2023-07-20T13:31:32;38.10;41.90
13256;DHT22;37913;48.370;10.930;2023-07-20T13:33:59;37.00;42.70
13256;DHT22;37913;48.370;10.930;2023-07-20T13:36:27;36.90;42.50
13256;DHT22;37913;48.370;10.930;2023-07-20T13:38:54;37.50;42.20
13256;DHT22;37913;48.370;10.930;2023-07-20T13:41:21;38.60;41.70
13256;DHT22;37913;48.370;10.930;2023-07-20T13:43:48;39.80;39.40
13256;DHT22;37913;48.370;10.930;2023-07-20T13:46:15;39.90;39.70
13256;DHT22;37913;48.370;10.930;2023-07-20T13:48:42;37.50;40.70
13256;DHT22;37913;48.370;10.930;2023-07-20T13:51:09;37.20;41.50
13256;DHT22;37913;48.370;10.930;2023-07-20T13:53:37;35.60;41.60
13256;DHT22;37913;48.370;10.930;2023-07-20T13:56:04;32.60;44.40
13256;DHT22;37913;48.370;10.930;2023-07-20T13:58:32;30.90;45.90
13256;DHT22;37913;48.370;10.930;2023-07-20T14:00:59;31.00;46.60
13256;DHT22;37913;48.370;10.930;2023-07-20T14:03:26;31.50;45.60
13256;DHT22;37913;48.370;10.930;2023-07-20T14:05:53;31.60;45.70
13256;DHT22;37913;48.370;10.930;2023-07-20T14:08:20;30.80;46.20
13256;DHT22;37913;48.370;10.930;2023-07-20T14:10:48;30.60;47.10
13256;DHT22;37913;48.370;10.930;2023-07-20T14:13:15;30.50;48.10
13256;DHT22;37913;48.370;10.930;2023-07-20T14:15:42;30.10;48.30
13256;DHT22;37913;48.370;10.930;2023-07-20T14:18:10;30.10;49.40
13256;DHT22;37913;48.370;10.930;2023-07-20T14:20:37;29.30;49.30
13256;DHT22;37913;48.370;10.930;2023-07-20T14:23:04;28.60;51.60
13256;DHT22;37913;48.370;10.930;2023-07-20T14:25:31;28.30;51.30
13256;DHT22;37913;48.370;10.930;2023-07-20T14:27:59;27.50;50.90
13256;DHT22;37913;48.370;10.930;2023-07-20T14:30:26;26.80;52.90
13256;DHT22;37913;48.370;10.930;2023-07-20T14:32:53;27.30;52.60
13256;DHT22;37913;48.370;10.930;2023-07-20T14:35:21;27.70;53.40
13256;DHT22;37913;48.370;10.930;2023-07-20T14:37:48;28.10;52.90
13256;DHT22;37913;48.370;10.930;2023-07-20T14:40:17;28.70;52.90
13256;DHT22;37913;48.370;10.930;2023-07-20T14:42:44;28.60;52.10
13256;DHT22;37913;48.370;10.930;2023-07-20T14:45:13;28.30;51.30
13256;DHT22;37913;48.370;10.930;2023-07-20T14:47:40;28.30;52.00
13256;DHT22;37913;48.370;10.930;2023-07-20T14:50:09;28.60;52.10
13256;DHT22;37913;48.370;10.930;2023-07-20T14:52:36;28.80;52.20
13256;DHT22;37913;48.370;10.930;2023-07-20T14:55:04;28.80;52.40
13256;DHT22;37913;48.370;10.930;2023-07-20T14:57:32;28.60;51.40
13256;DHT22;37913;48.370;10.930;2023-07-20T14:59:59;28.40;50.90
13256;DHT22;37913;48.370;10.930;2023-07-20T15:02:27;28.20;50.90
13256;DHT22;37913;48.370;10.930;2023-07-20T15:04:54;27.50;52.50
13256;DHT22;37913;48.370;10.930;2023-07-20T15:07:22;27.30;51.60
13256;DHT22;37913;48.370;10.930;2023-07-20T15:09:49;27.30;54.00
13256;DHT22;37913;48.370;10.930;2023-07-20T15:12:16;27.40;54.10
13256;DHT22;37913;48.370;10.930;2023-07-20T15:14:44;27.00;53.80
13256;DHT22;37913;48.370;10.930;2023-07-20T15:17:16;27.10;53.40
13256;DHT22;37913;48.370;10.930;2023-07-20T15:19:44;27.40;53.10
13256;DHT22;37913;48.370;10.930;2023-07-20T15:22:12;27.40;54.10